sensor_id;sensor_type;location;lat;lon;timestamp;P1;durP1;ratioP1;P2;durP2;ratioP2
43664;SDS011;29263;48.172;11.484;2024-01-15T00:00:12;5.70;;;2.83;;
43664;SDS011;29263;48.172;11.484;2024-01-15T00:02:38;5.57;;;2.40;;
43664;SDS011;29263;48.172;11.484;2024-01-15T00:05:04;6.20;;;3.03;;
43664;SDS011;29263;48.172;11.484;2024-01-15T00:07:29;5.13;;;2.53;;
43664;SDS011;29263;48.172;11.484;2024-01-15T00:09:55;6.07;;;2.40;;
43664;SDS011;29263;48.172;11.484;2024-01-15T00:12:21;7.47;;;3.23;;
43664;SDS011;29263;48.172;11.484;2024-01-15T00:14:46;6.30;;;2.97;;
43664;SDS011;29263;48.172;11.484;2024-01-15T00:17:12;6.57;;;2.93;;
43664;SDS011;29263;48.172;11.484;2024-01-15T00:19:38;4.70;;;2.73;;
43664;SDS011;29263;48.172;11.484;2024-01-15T00:22:03;5.73;;;2.90;;
43664;SDS011;29263;48.172;11.484;2024-01-15T00:24:29;7.07;;;3.07;;
43664;SDS011;29263;48.172;11.484;2024-01-15T00:26:55;9.83;;;3.63;;
43664;SDS011;29263;48.172;11.484;2024-01-15T00:29:21;5.63;;;3.27;;
43664;SDS011;29263;48.172;11.484;2024-01-15T00:31:47;9.60;;;3.43;;
43664;SDS011;29263;48.172;11.484;2024-01-15T00:34:12;7.33;;;3.13;;
43664;SDS011;29263;48.172;11.484;2024-01-15T00:36:38;6.03;;;3.10;;
43664;SDS011;29263;48.172;11.484;2024-01-15T00:39:03;6.00;;;3.57;;
43664;SDS011;29263;48.172;11.484;2024-01-15T00:41:30;5.87;;;3.13;;
43664;SDS011;29263;48.172;11.484;2024-01-15T00:43:56;7.70;;;3.50;;
43664;SDS011;29263;48.172;11.484;2024-01-15T00:46:22;11.20;;;4.30;;
43664;SDS011;29263;48.172;11.484;2024-01-15T00:48:47;5.93;;;3.07;;
43664;SDS011;29263;48.172;11.484;2024-01-15T00:51:13;8.17;;;3.57;;
43664;SDS011;29263;48.172;11.484;2024-01-15T00:53:39;6.17;;;3.33;;
43664;SDS011;29263;48.172;11.484;2024-01-15T00:56:05;8.10;;;4.03;;
43664;SDS011;29263;48.172;11.484;2024-01-15T00:58:30;8.67;;;4.40;;
43664;SDS011;29263;48.172;11.484;2024-01-15T01:00:56;10.60;;;4.60;;
43664;SDS011;29263;48.172;11.484;2024-01-15T01:03:21;10.50;;;5.13;;
43664;SDS011;29263;48.172;11.484;2024-01-15T01:05:50;11.67;;;5.17;;
43664;SDS011;29263;48.172;11.484;2024-01-15T01:08:16;8.25;;;4.70;;
43664;SDS011;29263;48.172;11.484;2024-01-15T01:10:41;13.07;;;5.93;;
43664;SDS011;29263;48.172;11.484;2024-01-15T01:13:08;8.83;;;4.60;;
43664;SDS011;29263;48.172;11.484;2024-01-15T01:15:33;9.03;;;4.43;;
43664;SDS011;29263;48.172;11.484;2024-01-15T01:17:59;10.43;;;5.23;;
43664;SDS011;29263;48.172;11.484;2024-01-15T01:20:25;10.20;;;4.50;;
43664;SDS011;29263;48.172;11.484;2024-01-15T01:22:50;9.40;;;4.50;;
43664;SDS011;29263;48.172;11.484;2024-01-15T01:25:16;10.67;;;4.70;;
43664;SDS011;29263;48.172;11.484;2024-01-15T01:27:41;8.30;;;4.00;;
43664;SDS011;29263;48.172;11.484;2024-01-15T01:30:07;10.73;;;4.07;;
43664;SDS011;29263;48.172;11.484;2024-01-15T01:32:33;9.43;;;4.23;;
43664;SDS011;29263;48.172;11.484;2024-01-15T01:34:59;7.70;;;4.13;;
43664;SDS011;29263;48.172;11.484;2024-01-15T01:37:25;7.57;;;4.67;;
43664;SDS011;29263;48.172;11.484;2024-01-15T01:39:50;9.97;;;4.30;;
43664;SDS011;29263;48.172;11.484;2024-01-15T01:42:16;10.47;;;4.80;;
43664;SDS011;29263;48.172;11.484;2024-01-15T01:44:41;9.80;;;3.80;;
43664;SDS011;29263;48.172;11.484;2024-01-15T01:47:07;7.67;;;3.80;;
43664;SDS011;29263;48.172;11.484;2024-01-15T01:49:33;9.80;;;3.50;;
43664;SDS011;29263;48.172;11.484;2024-01-15T01:52:00;6.93;;;3.43;;
43664;SDS011;29263;48.172;11.484;2024-01-15T01:54:29;8.70;;;3.43;;
43664;SDS011;29263;48.172;11.484;2024-01-15T01:56:56;6.45;;;3.35;;
43664;SDS011;29263;48.172;11.484;2024-01-15T01:59:23;8.47;;;3.90;;
43664;SDS011;29263;48.172;11.484;2024-01-15T02:01:51;6.07;;;3.17;;
43664;SDS011;29263;48.172;11.484;2024-01-15T02:04:22;6.47;;;3.87;;
43664;SDS011;29263;48.172;11.484;2024-01-15T02:06:49;5.77;;;3.43;;
43664;SDS011;29263;48.172;11.484;2024-01-15T02:09:15;7.50;;;3.60;;
43664;SDS011;29263;48.172;11.484;2024-01-15T02:11:42;5.27;;;3.00;;
43664;SDS011;29263;48.172;11.484;2024-01-15T02:14:08;7.23;;;3.50;;
43664;SDS011;29263;48.172;11.484;2024-01-15T02:16:35;8.07;;;4.43;;
43664;SDS011;29263;48.172;11.484;2024-01-15T02:19:00;7.90;;;3.60;;
43664;SDS011;29263;48.172;11.484;2024-01-15T02:21:26;8.23;;;4.03;;
43664;SDS011;29263;48.172;11.484;2024-01-15T02:23:53;8.97;;;4.13;;
43664;SDS011;29263;48.172;11.484;2024-01-15T02:26:19;7.90;;;3.80;;
43664;SDS011;29263;48.172;11.484;2024-01-15T02:28:46;9.47;;;4.03;;
43664;SDS011;29263;48.172;11.484;2024-01-15T02:31:12;10.23;;;4.60;;
43664;SDS011;29263;48.172;11.484;2024-01-15T02:33:38;10.50;;;4.70;;
43664;SDS011;29263;48.172;11.484;2024-01-15T02:36:03;8.77;;;3.90;;
43664;SDS011;29263;48.172;11.484;2024-01-15T02:38:30;11.73;;;4.37;;
43664;SDS011;29263;48.172;11.484;2024-01-15T02:40:56;7.90;;;4.20;;
43664;SDS011;29263;48.172;11.484;2024-01-15T02:43:21;10.03;;;4.67;;
43664;SDS011;29263;48.172;11.484;2024-01-15T02:45:47;7.93;;;4.00;;
43664;SDS011;29263;48.172;11.484;2024-01-15T02:48:12;9.67;;;4.70;;
43664;SDS011;29263;48.172;11.484;2024-01-15T02:50:38;10.27;;;4.27;;
43664;SDS011;29263;48.172;11.484;2024-01-15T02:53:04;7.23;;;3.80;;
43664;SDS011;29263;48.172;11.484;2024-01-15T02:55:30;7.43;;;3.97;;
43664;SDS011;29263;48.172;11.484;2024-01-15T02:57:55;8.93;;;4.00;;
43664;SDS011;29263;48.172;11.484;2024-01-15T03:00:21;7.67;;;3.87;;
43664;SDS011;29263;48.172;11.484;2024-01-15T03:02:47;8.80;;;4.20;;
43664;SDS011;29263;48.172;11.484;2024-01-15T03:05:15;10.60;;;4.17;;
43664;SDS011;29263;48.172;11.484;2024-01-15T03:07:41;10.17;;;4.33;;
43664;SDS011;29263;48.172;11.484;2024-01-15T03:10:06;8.23;;;3.67;;
43664;SDS011;29263;48.172;11.484;2024-01-15T03:12:32;10.63;;;4.80;;
43664;SDS011;29263;48.172;11.484;2024-01-15T03:14:58;8.40;;;3.60;;
43664;SDS011;29263;48.172;11.484;2024-01-15T03:17:24;8.97;;;4.47;;
43664;SDS011;29263;48.172;11.484;2024-01-15T03:19:49;8.27;;;4.00;;
43664;SDS011;29263;48.172;11.484;2024-01-15T03:22:15;8.23;;;3.27;;
43664;SDS011;29263;48.172;11.484;2024-01-15T03:24:41;12.47;;;4.03;;
43664;SDS011;29263;48.172;11.484;2024-01-15T03:27:07;8.17;;;3.87;;
43664;SDS011;29263;48.172;11.484;2024-01-15T03:29:32;9.20;;;4.00;;
43664;SDS011;29263;48.172;11.484;2024-01-15T03:31:58;8.07;;;3.57;;
43664;SDS011;29263;48.172;11.484;2024-01-15T03:34:24;8.20;;;4.10;;
43664;SDS011;29263;48.172;11.484;2024-01-15T03:36:49;5.30;;;3.23;;
43664;SDS011;29263;48.172;11.484;2024-01-15T03:39:15;7.40;;;3.43;;
43664;SDS011;29263;48.172;11.484;2024-01-15T03:41:41;7.87;;;3.80;;
43664;SDS011;29263;48.172;11.484;2024-01-15T03:44:06;8.40;;;3.67;;
43664;SDS011;29263;48.172;11.484;2024-01-15T03:46:32;8.93;;;3.60;;
43664;SDS011;29263;48.172;11.484;2024-01-15T03:48:57;9.07;;;3.57;;
43664;SDS011;29263;48.172;11.484;2024-01-15T03:51:24;9.17;;;4.10;;
43664;SDS011;29263;48.172;11.484;2024-01-15T03:53:50;9.57;;;3.83;;
43664;SDS011;29263;48.172;11.484;2024-01-15T03:56:15;7.43;;;3.20;;
43664;SDS011;29263;48.172;11.484;2024-01-15T03:58:41;9.23;;;3.83;;
43664;SDS011;29263;48.172;11.484;2024-01-15T04:01:10;10.90;;;4.03;;
43664;SDS011;29263;48.172;11.484;2024-01-15T04:03:36;6.32;;;3.45;;
43664;SDS011;29263;48.172;11.484;2024-01-15T04:06:02;10.60;;;3.30;;
43664;SDS011;29263;48.172;11.484;2024-01-15T04:08:30;9.13;;;3.45;;
43664;SDS011;29263;48.172;11.484;2024-01-15T04:10:56;5.47;;;3.03;;
43664;SDS011;29263;48.172;11.484;2024-01-15T04:13:22;8.07;;;3.30;;
43664;SDS011;29263;48.172;11.484;2024-01-15T04:15:47;8.57;;;4.00;;
43664;SDS011;29263;48.172;11.484;2024-01-15T04:18:13;5.27;;;3.00;;
43664;SDS011;29263;48.172;11.484;2024-01-15T04:20:40;9.03;;;4.03;;
43664;SDS011;29263;48.172;11.484;2024-01-15T04:23:06;5.43;;;3.10;;
43664;SDS011;29263;48.172;11.484;2024-01-15T04:25:32;7.87;;;4.10;;
43664;SDS011;29263;48.172;11.484;2024-01-15T04:27:57;7.70;;;3.40;;
43664;SDS011;29263;48.172;11.484;2024-01-15T04:30:23;9.30;;;3.40;;
43664;SDS011;29263;48.172;11.484;2024-01-15T04:32:49;11.30;;;4.10;;
43664;SDS011;29263;48.172;11.484;2024-01-15T04:35:15;7.93;;;3.57;;
43664;SDS011;29263;48.172;11.484;2024-01-15T04:37:40;6.63;;;3.50;;
43664;SDS011;29263;48.172;11.484;2024-01-15T04:40:06;6.63;;;3.30;;
43664;SDS011;29263;48.172;11.484;2024-01-15T04:42:32;7.17;;;3.57;;
43664;SDS011;29263;48.172;11.484;2024-01-15T04:44:58;8.70;;;3.53;;
43664;SDS011;29263;48.172;11.484;2024-01-15T04:47:24;7.00;;;3.50;;
43664;SDS011;29263;48.172;11.484;2024-01-15T04:49:49;7.00;;;3.43;;
43664;SDS011;29263;48.172;11.484;2024-01-15T04:52:16;9.57;;;3.87;;
43664;SDS011;29263;48.172;11.484;2024-01-15T04:54:41;8.07;;;3.40;;
43664;SDS011;29263;48.172;11.484;2024-01-15T04:57:07;4.87;;;2.83;;
43664;SDS011;29263;48.172;11.484;2024-01-15T04:59:32;6.47;;;3.03;;
43664;SDS011;29263;48.172;11.484;2024-01-15T05:01:58;7.57;;;3.27;;
43664;SDS011;29263;48.172;11.484;2024-01-15T05:04:24;7.20;;;3.23;;
43664;SDS011;29263;48.172;11.484;2024-01-15T05:06:50;11.20;;;4.40;;
43664;SDS011;29263;48.172;11.484;2024-01-15T05:09:15;6.63;;;2.97;;
43664;SDS011;29263;48.172;11.484;2024-01-15T05:11:42;8.67;;;3.70;;
43664;SDS011;29263;48.172;11.484;2024-01-15T05:14:08;4.33;;;2.50;;
43664;SDS011;29263;48.172;11.484;2024-01-15T05:16:34;6.23;;;3.50;;
43664;SDS011;29263;48.172;11.484;2024-01-15T05:18:59;8.13;;;3.33;;
43664;SDS011;29263;48.172;11.484;2024-01-15T05:21:25;8.13;;;3.73;;
43664;SDS011;29263;48.172;11.484;2024-01-15T05:23:51;6.33;;;3.03;;
43664;SDS011;29263;48.172;11.484;2024-01-15T05:26:16;5.63;;;3.07;;
43664;SDS011;29263;48.172;11.484;2024-01-15T05:28:42;7.10;;;3.50;;
43664;SDS011;29263;48.172;11.484;2024-01-15T05:31:08;5.93;;;3.30;;
43664;SDS011;29263;48.172;11.484;2024-01-15T05:33:34;5.97;;;3.03;;
43664;SDS011;29263;48.172;11.484;2024-01-15T05:35:59;4.77;;;3.10;;
43664;SDS011;29263;48.172;11.484;2024-01-15T05:38:25;8.10;;;3.00;;
43664;SDS011;29263;48.172;11.484;2024-01-15T05:40:51;7.63;;;3.33;;
43664;SDS011;29263;48.172;11.484;2024-01-15T05:43:16;5.23;;;2.40;;
43664;SDS011;29263;48.172;11.484;2024-01-15T05:45:43;5.57;;;2.90;;
43664;SDS011;29263;48.172;11.484;2024-01-15T05:48:09;6.67;;;3.17;;
43664;SDS011;29263;48.172;11.484;2024-01-15T05:50:35;6.67;;;2.83;;
43664;SDS011;29263;48.172;11.484;2024-01-15T05:53:01;5.40;;;2.70;;
43664;SDS011;29263;48.172;11.484;2024-01-15T05:55:27;5.87;;;2.93;;
43664;SDS011;29263;48.172;11.484;2024-01-15T05:57:53;7.33;;;3.03;;
43664;SDS011;29263;48.172;11.484;2024-01-15T06:00:18;5.93;;;2.70;;
43664;SDS011;29263;48.172;11.484;2024-01-15T06:02:44;4.43;;;2.67;;
43664;SDS011;29263;48.172;11.484;2024-01-15T06:05:10;5.83;;;2.80;;
43664;SDS011;29263;48.172;11.484;2024-01-15T06:07:35;5.63;;;2.90;;
43664;SDS011;29263;48.172;11.484;2024-01-15T06:10:02;5.63;;;2.97;;
43664;SDS011;29263;48.172;11.484;2024-01-15T06:12:28;8.00;;;3.10;;
43664;SDS011;29263;48.172;11.484;2024-01-15T06:14:53;5.97;;;2.70;;
43664;SDS011;29263;48.172;11.484;2024-01-15T06:17:19;6.70;;;3.03;;
43664;SDS011;29263;48.172;11.484;2024-01-15T06:19:45;6.77;;;3.60;;
43664;SDS011;29263;48.172;11.484;2024-01-15T06:22:10;5.20;;;2.80;;
43664;SDS011;29263;48.172;11.484;2024-01-15T06:24:36;5.10;;;2.77;;
43664;SDS011;29263;48.172;11.484;2024-01-15T06:27:01;8.87;;;3.40;;
43664;SDS011;29263;48.172;11.484;2024-01-15T06:29:27;5.07;;;2.67;;
43664;SDS011;29263;48.172;11.484;2024-01-15T06:31:53;7.57;;;3.00;;
43664;SDS011;29263;48.172;11.484;2024-01-15T06:34:19;7.33;;;3.10;;
43664;SDS011;29263;48.172;11.484;2024-01-15T06:36:44;7.03;;;2.90;;
43664;SDS011;29263;48.172;11.484;2024-01-15T06:39:10;5.40;;;3.03;;
43664;SDS011;29263;48.172;11.484;2024-01-15T06:41:36;6.17;;;2.50;;
43664;SDS011;29263;48.172;11.484;2024-01-15T06:44:08;7.80;;;3.03;;
43664;SDS011;29263;48.172;11.484;2024-01-15T06:46:41;6.97;;;3.03;;
43664;SDS011;29263;48.172;11.484;2024-01-15T06:49:07;4.00;;;2.10;;
43664;SDS011;29263;48.172;11.484;2024-01-15T06:51:33;5.07;;;2.37;;
43664;SDS011;29263;48.172;11.484;2024-01-15T06:53:58;4.70;;;2.33;;
43664;SDS011;29263;48.172;11.484;2024-01-15T06:56:24;6.90;;;3.23;;
43664;SDS011;29263;48.172;11.484;2024-01-15T06:58:50;5.87;;;3.03;;
43664;SDS011;29263;48.172;11.484;2024-01-15T07:01:15;6.20;;;3.00;;
43664;SDS011;29263;48.172;11.484;2024-01-15T07:03:41;8.63;;;2.87;;
43664;SDS011;29263;48.172;11.484;2024-01-15T07:06:07;6.67;;;3.43;;
43664;SDS011;29263;48.172;11.484;2024-01-15T07:08:32;7.87;;;3.30;;
43664;SDS011;29263;48.172;11.484;2024-01-15T07:10:58;6.83;;;3.00;;
43664;SDS011;29263;48.172;11.484;2024-01-15T07:13:23;7.13;;;3.27;;
43664;SDS011;29263;48.172;11.484;2024-01-15T07:15:49;5.60;;;3.50;;
43664;SDS011;29263;48.172;11.484;2024-01-15T07:18:15;6.37;;;3.30;;
43664;SDS011;29263;48.172;11.484;2024-01-15T07:20:41;8.37;;;2.97;;
43664;SDS011;29263;48.172;11.484;2024-01-15T07:23:07;7.40;;;3.07;;
43664;SDS011;29263;48.172;11.484;2024-01-15T07:25:32;5.70;;;2.47;;
43664;SDS011;29263;48.172;11.484;2024-01-15T07:27:58;5.93;;;2.77;;
43664;SDS011;29263;48.172;11.484;2024-01-15T07:30:24;7.50;;;2.77;;
43664;SDS011;29263;48.172;11.484;2024-01-15T07:32:49;7.07;;;2.87;;
43664;SDS011;29263;48.172;11.484;2024-01-15T07:35:16;8.00;;;3.73;;
43664;SDS011;29263;48.172;11.484;2024-01-15T07:37:42;5.37;;;2.60;;
43664;SDS011;29263;48.172;11.484;2024-01-15T07:40:08;5.90;;;3.13;;
43664;SDS011;29263;48.172;11.484;2024-01-15T07:42:34;8.17;;;2.83;;
43664;SDS011;29263;48.172;11.484;2024-01-15T07:45:00;8.57;;;3.43;;
43664;SDS011;29263;48.172;11.484;2024-01-15T07:47:26;6.10;;;2.93;;
43664;SDS011;29263;48.172;11.484;2024-01-15T07:49:52;5.00;;;3.10;;
43664;SDS011;29263;48.172;11.484;2024-01-15T07:52:18;6.37;;;2.53;;
43664;SDS011;29263;48.172;11.484;2024-01-15T07:54:44;7.80;;;3.30;;
43664;SDS011;29263;48.172;11.484;2024-01-15T07:57:10;8.00;;;3.47;;
43664;SDS011;29263;48.172;11.484;2024-01-15T07:59:35;7.60;;;3.50;;
43664;SDS011;29263;48.172;11.484;2024-01-15T08:02:01;6.43;;;3.27;;
43664;SDS011;29263;48.172;11.484;2024-01-15T08:04:27;7.93;;;4.23;;
43664;SDS011;29263;48.172;11.484;2024-01-15T08:06:52;7.37;;;3.40;;
43664;SDS011;29263;48.172;11.484;2024-01-15T08:09:18;6.73;;;3.33;;
43664;SDS011;29263;48.172;11.484;2024-01-15T08:11:44;6.30;;;3.10;;
43664;SDS011;29263;48.172;11.484;2024-01-15T08:14:10;5.43;;;2.80;;
43664;SDS011;29263;48.172;11.484;2024-01-15T08:16:36;6.20;;;3.33;;
43664;SDS011;29263;48.172;11.484;2024-01-15T08:19:02;6.73;;;3.33;;
43664;SDS011;29263;48.172;11.484;2024-01-15T08:21:28;7.37;;;3.27;;
43664;SDS011;29263;48.172;11.484;2024-01-15T08:23:56;9.13;;;3.93;;
43664;SDS011;29263;48.172;11.484;2024-01-15T08:26:22;7.73;;;3.30;;
43664;SDS011;29263;48.172;11.484;2024-01-15T08:28:48;6.50;;;2.80;;
43664;SDS011;29263;48.172;11.484;2024-01-15T08:31:13;5.33;;;2.70;;
43664;SDS011;29263;48.172;11.484;2024-01-15T08:33:39;7.07;;;2.60;;
43664;SDS011;29263;48.172;11.484;2024-01-15T08:36:05;7.87;;;3.10;;
43664;SDS011;29263;48.172;11.484;2024-01-15T08:38:30;5.37;;;2.57;;
43664;SDS011;29263;48.172;11.484;2024-01-15T08:40:56;5.67;;;2.37;;
43664;SDS011;29263;48.172;11.484;2024-01-15T08:43:24;6.47;;;2.70;;
43664;SDS011;29263;48.172;11.484;2024-01-15T08:45:49;6.63;;;3.10;;
43664;SDS011;29263;48.172;11.484;2024-01-15T08:48:16;4.10;;;2.40;;
43664;SDS011;29263;48.172;11.484;2024-01-15T08:50:42;6.33;;;2.77;;
43664;SDS011;29263;48.172;11.484;2024-01-15T08:53:07;6.40;;;3.07;;
43664;SDS011;29263;48.172;11.484;2024-01-15T08:55:33;6.20;;;3.20;;
43664;SDS011;29263;48.172;11.484;2024-01-15T08:57:59;6.57;;;3.10;;
43664;SDS011;29263;48.172;11.484;2024-01-15T09:00:24;5.60;;;2.80;;
43664;SDS011;29263;48.172;11.484;2024-01-15T09:02:50;8.93;;;3.33;;
43664;SDS011;29263;48.172;11.484;2024-01-15T09:05:15;6.40;;;2.70;;
43664;SDS011;29263;48.172;11.484;2024-01-15T09:07:41;7.40;;;3.27;;
43664;SDS011;29263;48.172;11.484;2024-01-15T09:10:07;6.17;;;3.43;;
43664;SDS011;29263;48.172;11.484;2024-01-15T09:12:33;6.30;;;2.77;;
43664;SDS011;29263;48.172;11.484;2024-01-15T09:14:58;6.23;;;3.20;;
43664;SDS011;29263;48.172;11.484;2024-01-15T09:17:24;5.53;;;3.10;;
43664;SDS011;29263;48.172;11.484;2024-01-15T09:19:49;6.67;;;2.73;;
43664;SDS011;29263;48.172;11.484;2024-01-15T09:22:15;6.50;;;2.87;;
43664;SDS011;29263;48.172;11.484;2024-01-15T09:24:44;7.60;;;3.45;;
43664;SDS011;29263;48.172;11.484;2024-01-15T09:27:10;7.87;;;3.37;;
43664;SDS011;29263;48.172;11.484;2024-01-15T09:29:36;6.23;;;2.77;;
43664;SDS011;29263;48.172;11.484;2024-01-15T09:32:05;5.33;;;2.70;;
43664;SDS011;29263;48.172;11.484;2024-01-15T09:34:31;4.57;;;2.87;;
43664;SDS011;29263;48.172;11.484;2024-01-15T09:36:57;5.87;;;2.97;;
43664;SDS011;29263;48.172;11.484;2024-01-15T09:39:22;7.07;;;2.60;;
43664;SDS011;29263;48.172;11.484;2024-01-15T09:41:48;7.47;;;2.77;;
43664;SDS011;29263;48.172;11.484;2024-01-15T09:44:14;4.67;;;3.00;;
43664;SDS011;29263;48.172;11.484;2024-01-15T09:46:41;5.80;;;3.07;;
43664;SDS011;29263;48.172;11.484;2024-01-15T09:49:08;5.07;;;2.50;;
43664;SDS011;29263;48.172;11.484;2024-01-15T09:51:34;5.03;;;3.03;;
43664;SDS011;29263;48.172;11.484;2024-01-15T09:54:00;4.83;;;2.33;;
43664;SDS011;29263;48.172;11.484;2024-01-15T09:56:26;4.33;;;2.33;;
43664;SDS011;29263;48.172;11.484;2024-01-15T09:58:52;5.33;;;2.67;;
43664;SDS011;29263;48.172;11.484;2024-01-15T10:01:19;5.53;;;2.50;;
43664;SDS011;29263;48.172;11.484;2024-01-15T10:03:46;6.10;;;2.73;;
43664;SDS011;29263;48.172;11.484;2024-01-15T10:06:15;6.60;;;2.30;;
43664;SDS011;29263;48.172;11.484;2024-01-15T10:08:47;6.03;;;2.83;;
43664;SDS011;29263;48.172;11.484;2024-01-15T10:11:14;4.77;;;2.23;;
43664;SDS011;29263;48.172;11.484;2024-01-15T10:13:41;4.40;;;2.10;;
43664;SDS011;29263;48.172;11.484;2024-01-15T10:16:10;4.95;;;2.47;;
43664;SDS011;29263;48.172;11.484;2024-01-15T10:18:36;6.83;;;2.27;;
43664;SDS011;29263;48.172;11.484;2024-01-15T10:21:04;3.20;;;2.13;;
43664;SDS011;29263;48.172;11.484;2024-01-15T10:23:34;4.97;;;2.40;;
43664;SDS011;29263;48.172;11.484;2024-01-15T10:26:01;4.10;;;2.50;;
43664;SDS011;29263;48.172;11.484;2024-01-15T10:28:27;6.63;;;2.57;;
43664;SDS011;29263;48.172;11.484;2024-01-15T10:30:56;3.80;;;2.27;;
43664;SDS011;29263;48.172;11.484;2024-01-15T10:33:22;3.97;;;2.40;;
43664;SDS011;29263;48.172;11.484;2024-01-15T10:35:53;4.50;;;2.37;;
43664;SDS011;29263;48.172;11.484;2024-01-15T10:38:20;4.00;;;2.03;;
43664;SDS011;29263;48.172;11.484;2024-01-15T10:40:47;5.00;;;1.80;;
43664;SDS011;29263;48.172;11.484;2024-01-15T10:43:15;7.00;;;2.17;;
43664;SDS011;29263;48.172;11.484;2024-01-15T10:45:43;4.40;;;1.73;;
43664;SDS011;29263;48.172;11.484;2024-01-15T10:48:12;5.07;;;2.23;;
43664;SDS011;29263;48.172;11.484;2024-01-15T10:50:41;3.70;;;2.00;;
43664;SDS011;29263;48.172;11.484;2024-01-15T10:53:08;5.63;;;2.20;;
43664;SDS011;29263;48.172;11.484;2024-01-15T10:55:35;7.07;;;2.23;;
43664;SDS011;29263;48.172;11.484;2024-01-15T10:58:02;4.90;;;2.10;;
43664;SDS011;29263;48.172;11.484;2024-01-15T11:00:28;3.97;;;2.13;;
43664;SDS011;29263;48.172;11.484;2024-01-15T11:02:55;4.50;;;2.17;;
43664;SDS011;29263;48.172;11.484;2024-01-15T11:05:24;3.87;;;2.30;;
43664;SDS011;29263;48.172;11.484;2024-01-15T11:07:50;5.53;;;2.75;;
43664;SDS011;29263;48.172;11.484;2024-01-15T11:16:07;4.43;;;2.47;;
43664;SDS011;29263;48.172;11.484;2024-01-15T11:18:35;4.47;;;2.43;;
43664;SDS011;29263;48.172;11.484;2024-01-15T11:29:06;4.83;;;2.50;;
43664;SDS011;29263;48.172;11.484;2024-01-15T11:34:04;4.17;;;2.57;;
43664;SDS011;29263;48.172;11.484;2024-01-15T11:41:52;5.17;;;2.07;;
43664;SDS011;29263;48.172;11.484;2024-01-15T11:44:21;4.70;;;2.10;;
43664;SDS011;29263;48.172;11.484;2024-01-15T11:47:06;3.13;;;1.73;;
43664;SDS011;29263;48.172;11.484;2024-01-15T11:52:23;4.57;;;2.00;;
43664;SDS011;29263;48.172;11.484;2024-01-15T11:57:48;5.20;;;2.07;;
43664;SDS011;29263;48.172;11.484;2024-01-15T12:00:16;5.07;;;1.70;;
43664;SDS011;29263;48.172;11.484;2024-01-15T12:02:42;4.00;;;1.97;;
43664;SDS011;29263;48.172;11.484;2024-01-15T12:05:09;4.40;;;2.23;;
43664;SDS011;29263;48.172;11.484;2024-01-15T12:07:38;4.80;;;1.90;;
43664;SDS011;29263;48.172;11.484;2024-01-15T12:10:13;4.78;;;2.05;;
43664;SDS011;29263;48.172;11.484;2024-01-15T12:12:53;4.30;;;2.20;;
43664;SDS011;29263;48.172;11.484;2024-01-15T12:15:24;6.17;;;2.20;;
43664;SDS011;29263;48.172;11.484;2024-01-15T12:17:51;4.70;;;2.63;;
43664;SDS011;29263;48.172;11.484;2024-01-15T12:20:17;2.40;;;1.67;;
43664;SDS011;29263;48.172;11.484;2024-01-15T12:22:43;2.33;;;1.53;;
43664;SDS011;29263;48.172;11.484;2024-01-15T12:25:10;3.37;;;1.60;;
43664;SDS011;29263;48.172;11.484;2024-01-15T12:27:35;2.87;;;1.80;;
43664;SDS011;29263;48.172;11.484;2024-01-15T12:30:01;2.73;;;1.50;;
43664;SDS011;29263;48.172;11.484;2024-01-15T12:32:27;3.20;;;1.70;;
43664;SDS011;29263;48.172;11.484;2024-01-15T12:34:54;3.23;;;1.30;;
43664;SDS011;29263;48.172;11.484;2024-01-15T12:37:20;3.40;;;2.00;;
43664;SDS011;29263;48.172;11.484;2024-01-15T12:39:46;2.00;;;1.23;;
43664;SDS011;29263;48.172;11.484;2024-01-15T12:42:16;2.87;;;1.17;;
43664;SDS011;29263;48.172;11.484;2024-01-15T12:44:42;3.45;;;1.67;;
43664;SDS011;29263;48.172;11.484;2024-01-15T12:47:09;1.77;;;1.27;;
43664;SDS011;29263;48.172;11.484;2024-01-15T12:49:38;3.13;;;1.53;;
43664;SDS011;29263;48.172;11.484;2024-01-15T12:52:07;1.60;;;1.17;;
43664;SDS011;29263;48.172;11.484;2024-01-15T12:54:33;2.80;;;1.33;;
43664;SDS011;29263;48.172;11.484;2024-01-15T12:56:59;4.03;;;1.87;;
43664;SDS011;29263;48.172;11.484;2024-01-15T12:59:25;6.60;;;1.80;;
43664;SDS011;29263;48.172;11.484;2024-01-15T13:01:50;4.57;;;1.70;;
43664;SDS011;29263;48.172;11.484;2024-01-15T13:04:22;3.13;;;1.87;;
43664;SDS011;29263;48.172;11.484;2024-01-15T13:06:49;4.37;;;1.63;;
43664;SDS011;29263;48.172;11.484;2024-01-15T13:09:15;3.87;;;1.90;;
43664;SDS011;29263;48.172;11.484;2024-01-15T13:11:42;4.10;;;1.80;;
43664;SDS011;29263;48.172;11.484;2024-01-15T13:14:08;3.93;;;2.30;;
43664;SDS011;29263;48.172;11.484;2024-01-15T13:16:34;4.03;;;2.53;;
43664;SDS011;29263;48.172;11.484;2024-01-15T13:19:00;3.40;;;1.80;;
43664;SDS011;29263;48.172;11.484;2024-01-15T13:21:25;3.43;;;1.80;;
43664;SDS011;29263;48.172;11.484;2024-01-15T13:23:51;5.03;;;1.77;;
43664;SDS011;29263;48.172;11.484;2024-01-15T13:26:17;3.80;;;1.90;;
43664;SDS011;29263;48.172;11.484;2024-01-15T13:28:44;4.27;;;2.10;;
43664;SDS011;29263;48.172;11.484;2024-01-15T13:31:10;4.37;;;2.23;;
43664;SDS011;29263;48.172;11.484;2024-01-15T13:33:35;6.33;;;2.23;;
43664;SDS011;29263;48.172;11.484;2024-01-15T13:36:01;3.60;;;1.90;;
43664;SDS011;29263;48.172;11.484;2024-01-15T13:38:27;5.50;;;2.13;;
43664;SDS011;29263;48.172;11.484;2024-01-15T13:40:56;3.63;;;2.00;;
43664;SDS011;29263;48.172;11.484;2024-01-15T13:43:22;4.33;;;2.00;;
43664;SDS011;29263;48.172;11.484;2024-01-15T13:45:47;4.97;;;2.30;;
43664;SDS011;29263;48.172;11.484;2024-01-15T13:48:14;5.17;;;2.17;;
43664;SDS011;29263;48.172;11.484;2024-01-15T13:50:40;5.53;;;2.80;;
43664;SDS011;29263;48.172;11.484;2024-01-15T13:53:05;5.10;;;3.17;;
43664;SDS011;29263;48.172;11.484;2024-01-15T13:55:31;5.43;;;2.67;;
43664;SDS011;29263;48.172;11.484;2024-01-15T13:57:57;4.77;;;2.67;;
43664;SDS011;29263;48.172;11.484;2024-01-15T14:00:22;6.40;;;3.13;;
43664;SDS011;29263;48.172;11.484;2024-01-15T14:02:48;3.87;;;2.20;;
43664;SDS011;29263;48.172;11.484;2024-01-15T14:05:14;5.43;;;2.53;;
43664;SDS011;29263;48.172;11.484;2024-01-15T14:07:39;4.03;;;2.90;;
43664;SDS011;29263;48.172;11.484;2024-01-15T14:10:06;5.17;;;2.43;;
43664;SDS011;29263;48.172;11.484;2024-01-15T14:12:33;8.03;;;2.97;;
43664;SDS011;29263;48.172;11.484;2024-01-15T14:14:59;7.10;;;3.10;;
43664;SDS011;29263;48.172;11.484;2024-01-15T14:17:25;8.37;;;3.00;;
43664;SDS011;29263;48.172;11.484;2024-01-15T14:19:51;5.30;;;2.77;;
43664;SDS011;29263;48.172;11.484;2024-01-15T14:22:16;6.93;;;2.70;;
43664;SDS011;29263;48.172;11.484;2024-01-15T14:24:42;5.20;;;2.43;;
43664;SDS011;29263;48.172;11.484;2024-01-15T14:27:08;4.23;;;2.00;;
43664;SDS011;29263;48.172;11.484;2024-01-15T14:29:34;4.93;;;2.47;;
43664;SDS011;29263;48.172;11.484;2024-01-15T14:32:01;6.07;;;3.10;;
43664;SDS011;29263;48.172;11.484;2024-01-15T14:34:26;6.17;;;2.90;;
43664;SDS011;29263;48.172;11.484;2024-01-15T14:36:52;8.73;;;2.93;;
43664;SDS011;29263;48.172;11.484;2024-01-15T14:39:23;6.13;;;2.40;;
43664;SDS011;29263;48.172;11.484;2024-01-15T14:41:50;3.43;;;1.70;;
43664;SDS011;29263;48.172;11.484;2024-01-15T14:44:16;5.57;;;2.33;;
43664;SDS011;29263;48.172;11.484;2024-01-15T14:46:42;3.97;;;2.07;;
43664;SDS011;29263;48.172;11.484;2024-01-15T14:49:07;2.03;;;1.67;;
43664;SDS011;29263;48.172;11.484;2024-01-15T14:51:33;5.63;;;2.27;;
43664;SDS011;29263;48.172;11.484;2024-01-15T14:53:59;6.77;;;2.63;;